sensor_id;sensor_type;location;lat;lon;timestamp;P1;durP1;ratioP1;P2;durP2;ratioP2
10092;SDS011;5085;48.092;11.484;2023-03-01T00:01:20;15.38;;;7.82;;
10092;SDS011;5085;48.092;11.484;2023-03-01T00:03:54;14.60;;;7.13;;
10092;SDS011;5085;48.092;11.484;2023-03-01T00:06:21;14.52;;;7.78;;
10092;SDS011;5085;48.092;11.484;2023-03-01T00:08:48;23.60;;;8.45;;
10092;SDS011;5085;48.092;11.484;2023-03-01T00:11:22;18.90;;;8.63;;
10092;SDS011;5085;48.092;11.484;2023-03-01T00:13:51;15.57;;;7.93;;
10092;SDS011;5085;48.092;11.484;2023-03-01T00:16:19;11.35;;;6.18;;
10092;SDS011;5085;48.092;11.484;2023-03-01T00:18:47;13.52;;;6.95;;
10092;SDS011;5085;48.092;11.484;2023-03-01T00:21:14;14.68;;;7.70;;
10092;SDS011;5085;48.092;11.484;2023-03-01T00:23:40;16.05;;;8.48;;
10092;SDS011;5085;48.092;11.484;2023-03-01T00:26:07;14.70;;;7.80;;
10092;SDS011;5085;48.092;11.484;2023-03-01T00:28:40;16.95;;;8.35;;
10092;SDS011;5085;48.092;11.484;2023-03-01T00:31:11;16.25;;;7.63;;
10092;SDS011;5085;48.092;11.484;2023-03-01T00:33:39;16.67;;;7.95;;
10092;SDS011;5085;48.092;11.484;2023-03-01T00:36:05;17.52;;;8.50;;
10092;SDS011;5085;48.092;11.484;2023-03-01T00:38:35;13.73;;;7.20;;
10092;SDS011;5085;48.092;11.484;2023-03-01T00:41:04;9.20;;;6.03;;
10092;SDS011;5085;48.092;11.484;2023-03-01T00:43:36;14.68;;;7.50;;
10092;SDS011;5085;48.092;11.484;2023-03-01T00:46:07;17.83;;;7.60;;
10092;SDS011;5085;48.092;11.484;2023-03-01T00:48:34;14.40;;;6.82;;
10092;SDS011;5085;48.092;11.484;2023-03-01T00:51:07;11.18;;;6.85;;
10092;SDS011;5085;48.092;11.484;2023-03-01T00:53:35;17.13;;;7.53;;
10092;SDS011;5085;48.092;11.484;2023-03-01T00:56:02;13.85;;;8.02;;
10092;SDS011;5085;48.092;11.484;2023-03-01T00:58:29;17.95;;;8.85;;
10092;SDS011;5085;48.092;11.484;2023-03-01T01:00:55;14.07;;;8.02;;
10092;SDS011;5085;48.092;11.484;2023-03-01T01:03:21;13.00;;;6.70;;
10092;SDS011;5085;48.092;11.484;2023-03-01T01:05:53;14.60;;;7.82;;
10092;SDS011;5085;48.092;11.484;2023-03-01T01:08:20;14.60;;;8.07;;
10092;SDS011;5085;48.092;11.484;2023-03-01T01:10:46;14.32;;;7.97;;
10092;SDS011;5085;48.092;11.484;2023-03-01T01:13:13;15.70;;;7.90;;
10092;SDS011;5085;48.092;11.484;2023-03-01T01:15:40;15.02;;;7.65;;
10092;SDS011;5085;48.092;11.484;2023-03-01T01:18:06;16.02;;;7.70;;
10092;SDS011;5085;48.092;11.484;2023-03-01T01:20:34;16.25;;;8.05;;
10092;SDS011;5085;48.092;11.484;2023-03-01T01:23:01;13.65;;;7.00;;
10092;SDS011;5085;48.092;11.484;2023-03-01T01:25:27;16.63;;;8.95;;
10092;SDS011;5085;48.092;11.484;2023-03-01T01:27:53;15.43;;;8.80;;
10092;SDS011;5085;48.092;11.484;2023-03-01T01:30:19;13.00;;;8.05;;
10092;SDS011;5085;48.092;11.484;2023-03-01T01:32:52;14.30;;;7.65;;
10092;SDS011;5085;48.092;11.484;2023-03-01T01:35:18;18.98;;;7.63;;
10092;SDS011;5085;48.092;11.484;2023-03-01T01:37:44;10.27;;;5.75;;
10092;SDS011;5085;48.092;11.484;2023-03-01T01:40:10;14.65;;;8.57;;
10092;SDS011;5085;48.092;11.484;2023-03-01T01:42:36;12.23;;;7.32;;
10092;SDS011;5085;48.092;11.484;2023-03-01T01:45:24;15.15;;;8.15;;
10092;SDS011;5085;48.092;11.484;2023-03-01T01:48:00;11.00;;;6.43;;
10092;SDS011;5085;48.092;11.484;2023-03-01T01:50:32;15.15;;;7.50;;
10092;SDS011;5085;48.092;11.484;2023-03-01T01:53:08;11.05;;;5.88;;
10092;SDS011;5085;48.092;11.484;2023-03-01T01:55:36;15.15;;;7.50;;
10092;SDS011;5085;48.092;11.484;2023-03-01T01:58:08;16.02;;;7.80;;
10092;SDS011;5085;48.092;11.484;2023-03-01T02:00:36;15.32;;;7.68;;
10092;SDS011;5085;48.092;11.484;2023-03-01T02:03:04;15.75;;;8.18;;
10092;SDS011;5085;48.092;11.484;2023-03-01T02:08:14;12.75;;;7.53;;
10092;SDS011;5085;48.092;11.484;2023-03-01T02:10:43;14.55;;;7.03;;
10092;SDS011;5085;48.092;11.484;2023-03-01T02:13:11;15.25;;;7.63;;
10092;SDS011;5085;48.092;11.484;2023-03-01T02:15:38;19.65;;;9.80;;
10092;SDS011;5085;48.092;11.484;2023-03-01T02:18:06;17.27;;;7.63;;
10092;SDS011;5085;48.092;11.484;2023-03-01T02:23:30;11.98;;;6.38;;
10092;SDS011;5085;48.092;11.484;2023-03-01T02:25:57;12.93;;;7.60;;
10092;SDS011;5085;48.092;11.484;2023-03-01T02:28:31;20.15;;;7.78;;
10092;SDS011;5085;48.092;11.484;2023-03-01T02:30:59;13.27;;;7.90;;
10092;SDS011;5085;48.092;11.484;2023-03-01T02:33:43;14.00;;;7.78;;
10092;SDS011;5085;48.092;11.484;2023-03-01T02:36:15;16.48;;;8.25;;
10092;SDS011;5085;48.092;11.484;2023-03-01T02:38:44;17.75;;;8.02;;
10092;SDS011;5085;48.092;11.484;2023-03-01T02:41:11;16.15;;;8.07;;
10092;SDS011;5085;48.092;11.484;2023-03-01T02:43:41;15.98;;;7.88;;
10092;SDS011;5085;48.092;11.484;2023-03-01T02:46:12;13.82;;;6.47;;
10092;SDS011;5085;48.092;11.484;2023-03-01T02:48:45;15.13;;;7.47;;
10092;SDS011;5085;48.092;11.484;2023-03-01T02:51:17;12.98;;;7.30;;
10092;SDS011;5085;48.092;11.484;2023-03-01T02:56:33;14.15;;;7.78;;
10092;SDS011;5085;48.092;11.484;2023-03-01T02:59:00;12.20;;;7.20;;
10092;SDS011;5085;48.092;11.484;2023-03-01T03:01:29;18.27;;;8.02;;
10092;SDS011;5085;48.092;11.484;2023-03-01T03:04:06;15.82;;;7.85;;
10092;SDS011;5085;48.092;11.484;2023-03-01T03:06:38;12.38;;;6.82;;
10092;SDS011;5085;48.092;11.484;2023-03-01T03:09:04;15.73;;;8.10;;
10092;SDS011;5085;48.092;11.484;2023-03-01T03:11:30;18.50;;;8.57;;
10092;SDS011;5085;48.092;11.484;2023-03-01T03:13:57;13.57;;;7.05;;
10092;SDS011;5085;48.092;11.484;2023-03-01T03:16:24;12.48;;;7.45;;
10092;SDS011;5085;48.092;11.484;2023-03-01T03:18:50;12.75;;;6.75;;
10092;SDS011;5085;48.092;11.484;2023-03-01T03:21:16;14.32;;;8.27;;
10092;SDS011;5085;48.092;11.484;2023-03-01T03:23:43;16.42;;;6.40;;
10092;SDS011;5085;48.092;11.484;2023-03-01T03:26:09;15.43;;;8.48;;
10092;SDS011;5085;48.092;11.484;2023-03-01T03:28:38;16.35;;;8.65;;
10092;SDS011;5085;48.092;11.484;2023-03-01T03:31:06;18.70;;;9.38;;
10092;SDS011;5085;48.092;11.484;2023-03-01T03:33:32;15.07;;;8.98;;
10092;SDS011;5085;48.092;11.484;2023-03-01T03:35:58;15.90;;;8.18;;
10092;SDS011;5085;48.092;11.484;2023-03-01T03:38:24;15.40;;;7.65;;
10092;SDS011;5085;48.092;11.484;2023-03-01T03:41:04;16.83;;;7.10;;
10092;SDS011;5085;48.092;11.484;2023-03-01T03:43:33;15.20;;;7.45;;
10092;SDS011;5085;48.092;11.484;2023-03-01T03:46:01;16.35;;;7.65;;
10092;SDS011;5085;48.092;11.484;2023-03-01T03:48:32;14.93;;;7.78;;
10092;SDS011;5085;48.092;11.484;2023-03-01T03:50:59;14.32;;;8.23;;
10092;SDS011;5085;48.092;11.484;2023-03-01T03:53:25;14.77;;;8.25;;
10092;SDS011;5085;48.092;11.484;2023-03-01T03:55:52;11.05;;;6.90;;
10092;SDS011;5085;48.092;11.484;2023-03-01T03:58:20;20.10;;;8.90;;
10092;SDS011;5085;48.092;11.484;2023-03-01T04:00:48;14.45;;;7.95;;
10092;SDS011;5085;48.092;11.484;2023-03-01T04:03:16;18.08;;;8.98;;
10092;SDS011;5085;48.092;11.484;2023-03-01T04:05:44;13.63;;;7.75;;
10092;SDS011;5085;48.092;11.484;2023-03-01T04:08:11;18.63;;;7.78;;
10092;SDS011;5085;48.092;11.484;2023-03-01T04:10:38;12.63;;;7.20;;
10092;SDS011;5085;48.092;11.484;2023-03-01T04:13:06;14.05;;;7.63;;
10092;SDS011;5085;48.092;11.484;2023-03-01T04:15:35;14.68;;;7.25;;
10092;SDS011;5085;48.092;11.484;2023-03-01T04:18:01;14.68;;;8.10;;
10092;SDS011;5085;48.092;11.484;2023-03-01T04:20:28;15.85;;;7.70;;
10092;SDS011;5085;48.092;11.484;2023-03-01T04:23:12;18.25;;;9.15;;
10092;SDS011;5085;48.092;11.484;2023-03-01T04:28:11;12.88;;;7.47;;
10092;SDS011;5085;48.092;11.484;2023-03-01T04:30:37;14.70;;;7.57;;
10092;SDS011;5085;48.092;11.484;2023-03-01T04:33:05;14.80;;;6.57;;
10092;SDS011;5085;48.092;11.484;2023-03-01T04:35:32;15.15;;;7.63;;
10092;SDS011;5085;48.092;11.484;2023-03-01T04:37:58;13.68;;;7.18;;
10092;SDS011;5085;48.092;11.484;2023-03-01T04:40:24;11.70;;;7.13;;
10092;SDS011;5085;48.092;11.484;2023-03-01T04:42:51;17.70;;;8.68;;
10092;SDS011;5085;48.092;11.484;2023-03-01T04:45:17;11.68;;;5.72;;
10092;SDS011;5085;48.092;11.484;2023-03-01T04:47:44;14.05;;;7.97;;
10092;SDS011;5085;48.092;11.484;2023-03-01T04:50:12;22.85;;;9.90;;
10092;SDS011;5085;48.092;11.484;2023-03-01T04:52:40;16.67;;;7.72;;
10092;SDS011;5085;48.092;11.484;2023-03-01T04:55:06;14.80;;;8.13;;
10092;SDS011;5085;48.092;11.484;2023-03-01T04:57:34;11.88;;;5.82;;
10092;SDS011;5085;48.092;11.484;2023-03-01T05:00:00;17.30;;;8.45;;
10092;SDS011;5085;48.092;11.484;2023-03-01T05:02:26;13.10;;;6.65;;
10092;SDS011;5085;48.092;11.484;2023-03-01T05:04:52;16.75;;;9.88;;
10092;SDS011;5085;48.092;11.484;2023-03-01T05:07:23;18.48;;;9.13;;
10092;SDS011;5085;48.092;11.484;2023-03-01T05:09:50;16.52;;;8.07;;
10092;SDS011;5085;48.092;11.484;2023-03-01T05:12:16;13.60;;;7.90;;
10092;SDS011;5085;48.092;11.484;2023-03-01T05:14:42;15.82;;;8.82;;
10092;SDS011;5085;48.092;11.484;2023-03-01T05:17:08;14.68;;;8.10;;
10092;SDS011;5085;48.092;11.484;2023-03-01T05:19:34;16.98;;;7.15;;
10092;SDS011;5085;48.092;11.484;2023-03-01T05:22:00;16.65;;;8.43;;
10092;SDS011;5085;48.092;11.484;2023-03-01T05:24:30;12.52;;;5.95;;
10092;SDS011;5085;48.092;11.484;2023-03-01T05:26:57;16.23;;;8.20;;
10092;SDS011;5085;48.092;11.484;2023-03-01T05:29:25;12.25;;;7.93;;
10092;SDS011;5085;48.092;11.484;2023-03-01T05:31:56;9.13;;;6.45;;
10092;SDS011;5085;48.092;11.484;2023-03-01T05:36:51;14.82;;;7.57;;
10092;SDS011;5085;48.092;11.484;2023-03-01T05:39:19;15.60;;;7.57;;
10092;SDS011;5085;48.092;11.484;2023-03-01T05:41:47;13.82;;;7.78;;
10092;SDS011;5085;48.092;11.484;2023-03-01T05:44:13;14.90;;;7.90;;
10092;SDS011;5085;48.092;11.484;2023-03-01T05:46:39;16.17;;;7.55;;
10092;SDS011;5085;48.092;11.484;2023-03-01T05:49:05;15.85;;;8.02;;
10092;SDS011;5085;48.092;11.484;2023-03-01T05:51:31;13.30;;;7.78;;
10092;SDS011;5085;48.092;11.484;2023-03-01T05:53:59;14.73;;;7.10;;
10092;SDS011;5085;48.092;11.484;2023-03-01T05:56:25;12.40;;;7.85;;
10092;SDS011;5085;48.092;11.484;2023-03-01T05:58:51;13.20;;;7.72;;
10092;SDS011;5085;48.092;11.484;2023-03-01T06:01:33;14.50;;;8.07;;
10092;SDS011;5085;48.092;11.484;2023-03-01T06:04:00;17.40;;;8.77;;
10092;SDS011;5085;48.092;11.484;2023-03-01T06:06:26;15.35;;;8.85;;
10092;SDS011;5085;48.092;11.484;2023-03-01T06:08:52;14.93;;;7.82;;
10092;SDS011;5085;48.092;11.484;2023-03-01T06:11:19;13.48;;;6.70;;
10092;SDS011;5085;48.092;11.484;2023-03-01T06:13:46;16.00;;;8.38;;
10092;SDS011;5085;48.092;11.484;2023-03-01T06:16:13;16.92;;;8.48;;
10092;SDS011;5085;48.092;11.484;2023-03-01T06:18:39;22.58;;;9.20;;
10092;SDS011;5085;48.092;11.484;2023-03-01T06:21:07;14.95;;;8.23;;
10092;SDS011;5085;48.092;11.484;2023-03-01T06:23:33;14.02;;;7.40;;
10092;SDS011;5085;48.092;11.484;2023-03-01T06:25:59;17.38;;;8.95;;
10092;SDS011;5085;48.092;11.484;2023-03-01T06:28:26;14.00;;;7.20;;
10092;SDS011;5085;48.092;11.484;2023-03-01T06:30:52;12.10;;;6.97;;
10092;SDS011;5085;48.092;11.484;2023-03-01T06:33:19;19.52;;;9.02;;
10092;SDS011;5085;48.092;11.484;2023-03-01T06:35:50;15.98;;;7.70;;
10092;SDS011;5085;48.092;11.484;2023-03-01T06:38:17;17.60;;;8.77;;
10092;SDS011;5085;48.092;11.484;2023-03-01T06:40:44;15.23;;;8.73;;
10092;SDS011;5085;48.092;11.484;2023-03-01T06:43:16;7.72;;;4.32;;
10092;SDS011;5085;48.092;11.484;2023-03-01T06:45:46;14.18;;;8.07;;
10092;SDS011;5085;48.092;11.484;2023-03-01T06:48:12;18.40;;;7.80;;
10092;SDS011;5085;48.092;11.484;2023-03-01T06:50:38;17.60;;;8.93;;
10092;SDS011;5085;48.092;11.484;2023-03-01T06:53:04;14.88;;;8.73;;
10092;SDS011;5085;48.092;11.484;2023-03-01T06:55:30;11.85;;;6.93;;
10092;SDS011;5085;48.092;11.484;2023-03-01T06:57:57;10.48;;;7.13;;
10092;SDS011;5085;48.092;11.484;2023-03-01T07:00:24;15.32;;;8.50;;
10092;SDS011;5085;48.092;11.484;2023-03-01T07:02:52;15.35;;;7.57;;
10092;SDS011;5085;48.092;11.484;2023-03-01T07:05:18;14.18;;;8.32;;
10092;SDS011;5085;48.092;11.484;2023-03-01T07:07:45;16.33;;;8.05;;
10092;SDS011;5085;48.092;11.484;2023-03-01T07:10:11;14.98;;;8.25;;
10092;SDS011;5085;48.092;11.484;2023-03-01T07:12:38;17.88;;;9.43;;
10092;SDS011;5085;48.092;11.484;2023-03-01T07:15:04;18.50;;;8.23;;
10092;SDS011;5085;48.092;11.484;2023-03-01T07:17:32;14.20;;;8.18;;
10092;SDS011;5085;48.092;11.484;2023-03-01T07:20:01;12.48;;;7.40;;
10092;SDS011;5085;48.092;11.484;2023-03-01T07:22:27;16.73;;;9.52;;
10092;SDS011;5085;48.092;11.484;2023-03-01T07:24:53;17.17;;;7.47;;
10092;SDS011;5085;48.092;11.484;2023-03-01T07:27:19;19.85;;;8.68;;
10092;SDS011;5085;48.092;11.484;2023-03-01T07:29:45;20.88;;;8.50;;
10092;SDS011;5085;48.092;11.484;2023-03-01T07:32:12;18.55;;;9.45;;
10092;SDS011;5085;48.092;11.484;2023-03-01T07:34:38;12.80;;;6.93;;
10092;SDS011;5085;48.092;11.484;2023-03-01T07:37:04;12.57;;;7.25;;
10092;SDS011;5085;48.092;11.484;2023-03-01T07:39:30;16.92;;;8.05;;
10092;SDS011;5085;48.092;11.484;2023-03-01T07:41:56;16.40;;;8.52;;
10092;SDS011;5085;48.092;11.484;2023-03-01T07:44:40;15.20;;;7.85;;
10092;SDS011;5085;48.092;11.484;2023-03-01T07:47:06;15.52;;;7.32;;
10092;SDS011;5085;48.092;11.484;2023-03-01T07:49:32;18.10;;;7.80;;
10092;SDS011;5085;48.092;11.484;2023-03-01T07:51:58;16.00;;;7.38;;
10092;SDS011;5085;48.092;11.484;2023-03-01T07:54:24;15.57;;;7.78;;
10092;SDS011;5085;48.092;11.484;2023-03-01T07:56:51;18.15;;;7.65;;
10092;SDS011;5085;48.092;11.484;2023-03-01T07:59:17;14.07;;;7.60;;
10092;SDS011;5085;48.092;11.484;2023-03-01T08:01:43;9.98;;;5.15;;
10092;SDS011;5085;48.092;11.484;2023-03-01T08:04:12;15.05;;;7.18;;
10092;SDS011;5085;48.092;11.484;2023-03-01T08:06:38;14.25;;;7.10;;
10092;SDS011;5085;48.092;11.484;2023-03-01T08:09:07;12.30;;;6.45;;
10092;SDS011;5085;48.092;11.484;2023-03-01T08:11:34;17.45;;;7.20;;
10092;SDS011;5085;48.092;11.484;2023-03-01T08:14:00;14.57;;;7.28;;
10092;SDS011;5085;48.092;11.484;2023-03-01T08:16:26;16.83;;;7.03;;
10092;SDS011;5085;48.092;11.484;2023-03-01T08:18:53;23.33;;;7.75;;
10092;SDS011;5085;48.092;11.484;2023-03-01T08:21:22;14.98;;;6.95;;
10092;SDS011;5085;48.092;11.484;2023-03-01T08:23:48;10.68;;;4.85;;
10092;SDS011;5085;48.092;11.484;2023-03-01T08:26:16;17.27;;;8.32;;
10092;SDS011;5085;48.092;11.484;2023-03-01T08:28:44;16.90;;;7.60;;
10092;SDS011;5085;48.092;11.484;2023-03-01T08:33:45;18.73;;;8.23;;
10092;SDS011;5085;48.092;11.484;2023-03-01T08:36:17;18.08;;;7.40;;
10092;SDS011;5085;48.092;11.484;2023-03-01T08:38:47;18.65;;;8.40;;
10092;SDS011;5085;48.092;11.484;2023-03-01T08:41:13;18.10;;;8.82;;
10092;SDS011;5085;48.092;11.484;2023-03-01T08:43:40;16.55;;;6.60;;
10092;SDS011;5085;48.092;11.484;2023-03-01T08:46:06;16.33;;;7.25;;
10092;SDS011;5085;48.092;11.484;2023-03-01T08:48:32;15.27;;;7.07;;
10092;SDS011;5085;48.092;11.484;2023-03-01T08:51:12;16.45;;;8.23;;
10092;SDS011;5085;48.092;11.484;2023-03-01T08:53:40;15.90;;;8.52;;
10092;SDS011;5085;48.092;11.484;2023-03-01T08:56:08;15.35;;;7.32;;
10092;SDS011;5085;48.092;11.484;2023-03-01T08:58:35;15.48;;;7.47;;
10092;SDS011;5085;48.092;11.484;2023-03-01T09:01:08;19.25;;;9.35;;
10092;SDS011;5085;48.092;11.484;2023-03-01T09:03:35;16.17;;;8.30;;
10092;SDS011;5085;48.092;11.484;2023-03-01T09:06:02;13.48;;;7.05;;
10092;SDS011;5085;48.092;11.484;2023-03-01T09:08:29;19.38;;;8.32;;
10092;SDS011;5085;48.092;11.484;2023-03-01T09:10:56;18.55;;;9.30;;
10092;SDS011;5085;48.092;11.484;2023-03-01T09:13:22;15.43;;;7.30;;
10092;SDS011;5085;48.092;11.484;2023-03-01T09:15:52;16.35;;;7.40;;
10092;SDS011;5085;48.092;11.484;2023-03-01T09:18:18;21.77;;;8.35;;
10092;SDS011;5085;48.092;11.484;2023-03-01T09:20:44;14.30;;;7.43;;
10092;SDS011;5085;48.092;11.484;2023-03-01T09:23:10;20.83;;;9.02;;
10092;SDS011;5085;48.092;11.484;2023-03-01T09:25:36;17.08;;;8.35;;
10092;SDS011;5085;48.092;11.484;2023-03-01T09:28:02;15.23;;;8.40;;
10092;SDS011;5085;48.092;11.484;2023-03-01T09:30:29;22.23;;;9.35;;
10092;SDS011;5085;48.092;11.484;2023-03-01T09:32:56;21.20;;;8.77;;
10092;SDS011;5085;48.092;11.484;2023-03-01T09:35:22;22.15;;;8.80;;
10092;SDS011;5085;48.092;11.484;2023-03-01T09:37:49;17.30;;;8.68;;
10092;SDS011;5085;48.092;11.484;2023-03-01T09:40:20;16.23;;;9.05;;
10092;SDS011;5085;48.092;11.484;2023-03-01T09:42:55;18.33;;;8.55;;
10092;SDS011;5085;48.092;11.484;2023-03-01T09:45:33;21.38;;;8.65;;
10092;SDS011;5085;48.092;11.484;2023-03-01T09:50:28;15.45;;;7.20;;
10092;SDS011;5085;48.092;11.484;2023-03-01T09:53:10;18.88;;;8.52;;
10092;SDS011;5085;48.092;11.484;2023-03-01T09:55:54;19.20;;;9.07;;
10092;SDS011;5085;48.092;11.484;2023-03-01T09:58:39;11.70;;;5.93;;
10092;SDS011;5085;48.092;11.484;2023-03-01T10:01:33;16.02;;;7.38;;
10092;SDS011;5085;48.092;11.484;2023-03-01T10:06:56;15.73;;;7.05;;
10092;SDS011;5085;48.092;11.484;2023-03-01T10:09:26;16.40;;;7.28;;
10092;SDS011;5085;48.092;11.484;2023-03-01T10:11:56;19.90;;;8.70;;
10092;SDS011;5085;48.092;11.484;2023-03-01T10:14:30;18.50;;;8.80;;
10092;SDS011;5085;48.092;11.484;2023-03-01T10:19:31;14.07;;;7.18;;
10092;SDS011;5085;48.092;11.484;2023-03-01T10:22:05;21.00;;;8.38;;
10092;SDS011;5085;48.092;11.484;2023-03-01T10:24:47;17.20;;;9.25;;
10092;SDS011;5085;48.092;11.484;2023-03-01T10:27:26;17.08;;;8.40;;
10092;SDS011;5085;48.092;11.484;2023-03-01T10:32:59;16.33;;;7.68;;
10092;SDS011;5085;48.092;11.484;2023-03-01T10:35:28;18.52;;;8.95;;
10092;SDS011;5085;48.092;11.484;2023-03-01T10:40:32;20.30;;;8.35;;
10092;SDS011;5085;48.092;11.484;2023-03-01T10:43:01;19.52;;;8.38;;
10092;SDS011;5085;48.092;11.484;2023-03-01T10:50:42;19.38;;;9.52;;
10092;SDS011;5085;48.092;11.484;2023-03-01T10:53:29;17.45;;;8.38;;
10092;SDS011;5085;48.092;11.484;2023-03-01T10:56:11;17.77;;;9.27;;
10092;SDS011;5085;48.092;11.484;2023-03-01T10:58:40;15.55;;;8.20;;
10092;SDS011;5085;48.092;11.484;2023-03-01T11:01:27;16.23;;;8.82;;
10092;SDS011;5085;48.092;11.484;2023-03-01T11:06:33;17.95;;;8.45;;
10092;SDS011;5085;48.092;11.484;2023-03-01T11:09:20;18.25;;;8.88;;
10092;SDS011;5085;48.092;11.484;2023-03-01T11:11:54;22.73;;;9.35;;
10092;SDS011;5085;48.092;11.484;2023-03-01T11:14:22;21.17;;;8.55;;
10092;SDS011;5085;48.092;11.484;2023-03-01T11:16:58;17.23;;;8.38;;
10092;SDS011;5085;48.092;11.484;2023-03-01T11:19:37;17.92;;;9.02;;
10092;SDS011;5085;48.092;11.484;2023-03-01T11:22:13;20.05;;;9.02;;
10092;SDS011;5085;48.092;11.484;2023-03-01T11:24:48;19.42;;;9.27;;
10092;SDS011;5085;48.092;11.484;2023-03-01T11:27:32;20.90;;;9.27;;
10092;SDS011;5085;48.092;11.484;2023-03-01T11:32:53;19.63;;;9.52;;
10092;SDS011;5085;48.092;11.484;2023-03-01T11:35:27;18.40;;;9.93;;
10092;SDS011;5085;48.092;11.484;2023-03-01T11:43:37;18.73;;;10.57;;
10092;SDS011;5085;48.092;11.484;2023-03-01T11:54:51;21.88;;;9.95;;
10092;SDS011;5085;48.092;11.484;2023-03-01T12:11:43;21.17;;;10.85;;
10092;SDS011;5085;48.092;11.484;2023-03-01T12:22:35;16.83;;;11.07;;
10092;SDS011;5085;48.092;11.484;2023-03-01T12:30:57;18.00;;;11.55;;
10092;SDS011;5085;48.092;11.484;2023-03-01T12:34:09;18.80;;;11.70;;
10092;SDS011;5085;48.092;11.484;2023-03-01T12:37:11;17.17;;;10.77;;
10092;SDS011;5085;48.092;11.484;2023-03-01T12:42:26;19.42;;;11.15;;
10092;SDS011;5085;48.092;11.484;2023-03-01T12:48:07;19.40;;;11.35;;
10092;SDS011;5085;48.092;11.484;2023-03-01T12:50:54;17.33;;;10.77;;
10092;SDS011;5085;48.092;11.484;2023-03-01T12:53:31;16.52;;;10.95;;
10092;SDS011;5085;48.092;11.484;2023-03-01T12:56:10;17.50;;;11.05;;
10092;SDS011;5085;48.092;11.484;2023-03-01T12:58:49;18.00;;;11.32;;
10092;SDS011;5085;48.092;11.484;2023-03-01T13:04:28;17.90;;;10.48;;
10092;SDS011;5085;48.092;11.484;2023-03-01T13:07:04;19.88;;;12.27;;
10092;SDS011;5085;48.092;11.484;2023-03-01T13:09:41;18.00;;;11.23;;
10092;SDS011;5085;48.092;11.484;2023-03-01T13:17:58;20.05;;;11.70;;
10092;SDS011;5085;48.092;11.484;2023-03-01T13:20:51;20.05;;;11.50;;
10092;SDS011;5085;48.092;11.484;2023-03-01T13:28:55;19.80;;;11.52;;
10092;SDS011;5085;48.092;11.484;2023-03-01T13:33:53;18.25;;;11.15;;
10092;SDS011;5085;48.092;11.484;2023-03-01T13:41:50;20.17;;;11.73;;
10092;SDS011;5085;48.092;11.484;2023-03-01T13:44:32;18.75;;;11.55;;
10092;SDS011;5085;48.092;11.484;2023-03-01T13:52:30;19.85;;;11.38;;
10092;SDS011;5085;48.092;11.484;2023-03-01T13:55:03;19.45;;;12.05;;
10092;SDS011;5085;48.092;11.484;2023-03-01T13:57:33;17.90;;;11.45;;
10092;SDS011;5085;48.092;11.484;2023-03-01T14:00:04;23.17;;;12.18;;
10092;SDS011;5085;48.092;11.484;2023-03-01T14:02:33;18.98;;;11.57;;
10092;SDS011;5085;48.092;11.484;2023-03-01T14:05:00;20.50;;;11.98;;
10092;SDS011;5085;48.092;11.484;2023-03-01T14:07:27;18.73;;;11.80;;
10092;SDS011;5085;48.092;11.484;2023-03-01T14:09:58;17.05;;;11.35;;
10092;SDS011;5085;48.092;11.484;2023-03-01T14:12:51;22.40;;;12.25;;
10092;SDS011;5085;48.092;11.484;2023-03-01T14:18:41;18.40;;;11.65;;
10092;SDS011;5085;48.092;11.484;2023-03-01T14:21:13;19.13;;;11.20;;
10092;SDS011;5085;48.092;11.484;2023-03-01T14:23:41;19.42;;;12.02;;
10092;SDS011;5085;48.092;11.484;2023-03-01T14:26:11;18.67;;;12.00;;
10092;SDS011;5085;48.092;11.484;2023-03-01T14:28:37;20.33;;;11.63;;
10092;SDS011;5085;48.092;11.484;2023-03-01T14:31:31;19.83;;;12.32;;
10092;SDS011;5085;48.092;11.484;2023-03-01T14:34:00;22.27;;;11.27;;
10092;SDS011;5085;48.092;11.484;2023-03-01T14:36:28;21.77;;;12.40;;
10092;SDS011;5085;48.092;11.484;2023-03-01T14:38:55;22.05;;;11.85;;
10092;SDS011;5085;48.092;11.484;2023-03-01T14:41:27;20.65;;;11.60;;
10092;SDS011;5085;48.092;11.484;2023-03-01T14:43:58;26.20;;;11.77;;
10092;SDS011;5085;48.092;11.484;2023-03-01T14:46:28;20.90;;;11.70;;
10092;SDS011;5085;48.092;11.484;2023-03-01T14:49:06;20.20;;;11.50;;
10092;SDS011;5085;48.092;11.484;2023-03-01T14:51:53;21.38;;;10.77;;
10092;SDS011;5085;48.092;11.484;2023-03-01T14:54:25;19.27;;;10.35;;
10092;SDS011;5085;48.092;11.484;2023-03-01T14:57:12;23.50;;;11.00;;
10092;SDS011;5085;48.092;11.484;2023-03-01T14:59:41;20.98;;;10.82;;
10092;SDS011;5085;48.092;11.484;2023-03-01T15:02:11;20.15;;;10.55;;
10092;SDS011;5085;48.092;11.484;2023-03-01T15:05:00;18.55;;;9.65;;
10092;SDS011;5085;48.092;11.484;2023-03-01T15:07:34;20.33;;;9.73;;
10092;SDS011;5085;48.092;11.484;2023-03-01T15:10:05;21.88;;;9.90;;
10092;SDS011;5085;48.092;11.484;2023-03-01T15:12:36;20.17;;;9.73;;
10092;SDS011;5085;48.092;11.484;2023-03-01T15:17:57;20.27;;;10.18;;
10092;SDS011;5085;48.092;11.484;2023-03-01T15:20:26;22.33;;;10.10;;
10092;SDS011;5085;48.092;11.484;2023-03-01T15:22:54;17.67;;;8.70;;
10092;SDS011;5085;48.092;11.484;2023-03-01T15:25:28;20.45;;;8.93;;
10092;SDS011;5085;48.092;11.484;2023-03-01T15:27:56;19.27;;;8.80;;
10092;SDS011;5085;48.092;11.484;2023-03-01T15:30:29;22.85;;;9.88;;
10092;SDS011;5085;48.092;11.484;2023-03-01T15:33:17;20.50;;;8.98;;
10092;SDS011;5085;48.092;11.484;2023-03-01T15:36:39;16.75;;;8.73;;
10092;SDS011;5085;48.092;11.484;2023-03-01T15:39:55;21.73;;;8.88;;
10092;SDS011;5085;48.092;11.484;2023-03-01T15:42:12;15.93;;;8.43;;
10092;SDS011;5085;48.092;11.484;2023-03-01T15:47:34;19.02;;;8.75;;
10092;SDS011;5085;48.092;11.484;2023-03-01T15:50:04;23.08;;;8.65;;
10092;SDS011;5085;48.092;11.484;2023-03-01T15:52:35;20.15;;;8.85;;
10092;SDS011;5085;48.092;11.484;2023-03-01T15:55:15;17.33;;;7.22;;
10092;SDS011;5085;48.092;11.484;2023-03-01T15:57:42;15.85;;;8.00;;
10092;SDS011;5085;48.092;11.484;2023-03-01T16:00:12;18.58;;;7.63;;
10092;SDS011;5085;48.092;11.484;2023-03-01T16:02:40;20.40;;;8.27;;
10092;SDS011;5085;48.092;11.484;2023-03-01T16:05:18;15.73;;;7.90;;
10092;SDS011;5085;48.092;11.484;2023-03-01T16:07:48;14.77;;;7.40;;
10092;SDS011;5085;48.092;11.484;2023-03-01T16:10:15;19.23;;;8.93;;
10092;SDS011;5085;48.092;11.484;2023-03-01T16:12:41;17.48;;;8.40;;
10092;SDS011;5085;48.092;11.484;2023-03-01T16:15:12;16.52;;;7.80;;
10092;SDS011;5085;48.092;11.484;2023-03-01T16:17:54;18.85;;;7.75;;
10092;SDS011;5085;48.092;11.484;2023-03-01T16:20:23;19.38;;;8.00;;
10092;SDS011;5085;48.092;11.484;2023-03-01T16:22:50;17.73;;;7.47;;
10092;SDS011;5085;48.092;11.484;2023-03-01T16:25:19;18.33;;;8.63;;
10092;SDS011;5085;48.092;11.484;2023-03-01T16:27:46;16.17;;;7.93;;
10092;SDS011;5085;48.092;11.484;2023-03-01T16:30:14;19.85;;;7.68;;
10092;SDS011;5085;48.092;11.484;2023-03-01T16:32:45;19.65;;;8.65;;
10092;SDS011;5085;48.092;11.484;2023-03-01T16:35:13;19.80;;;8.20;;
10092;SDS011;5085;48.092;11.484;2023-03-01T16:37:41;18.65;;;8.80;;
10092;SDS011;5085;48.092;11.484;2023-03-01T16:40:18;19.45;;;8.32;;
10092;SDS011;5085;48.092;11.484;2023-03-01T16:42:47;21.23;;;7.95;;
10092;SDS011;5085;48.092;11.484;2023-03-01T16:45:13;18.50;;;8.63;;
10092;SDS011;5085;48.092;11.484;2023-03-01T16:47:39;16.17;;;7.70;;
10092;SDS011;5085;48.092;11.484;2023-03-01T16:50:06;19.48;;;8.70;;
10092;SDS011;5085;48.092;11.484;2023-03-01T16:52:32;22.00;;;8.40;;
10092;SDS011;5085;48.092;11.484;2023-03-01T16:54:59;21.85;;;9.70;;
10092;SDS011;5085;48.092;11.484;2023-03-01T16:57:25;18.73;;;9.27;;